sensor_id;sensor_type;location;lat;lon;timestamp;P1;durP1;ratioP1;P2;durP2;ratioP2
54561;SDS011;69047;53.358;-1.486;2024-02-23T00:01:35;6.88;;;1.67;;
54561;SDS011;69047;53.358;-1.486;2024-02-23T00:04:01;7.53;;;1.63;;
54561;SDS011;69047;53.358;-1.486;2024-02-23T00:06:27;13.68;;;1.77;;
54561;SDS011;69047;53.358;-1.486;2024-02-23T00:08:53;7.68;;;1.25;;
54561;SDS011;69047;53.358;-1.486;2024-02-23T00:11:20;9.73;;;1.55;;
54561;SDS011;69047;53.358;-1.486;2024-02-23T00:13:45;12.80;;;1.90;;
54561;SDS011;69047;53.358;-1.486;2024-02-23T00:16:11;7.35;;;1.83;;
54561;SDS011;69047;53.358;-1.486;2024-02-23T00:18:37;13.30;;;2.08;;
54561;SDS011;69047;53.358;-1.486;2024-02-23T00:21:03;12.55;;;1.85;;
54561;SDS011;69047;53.358;-1.486;2024-02-23T00:23:28;9.70;;;1.30;;
54561;SDS011;69047;53.358;-1.486;2024-02-23T00:25:54;4.53;;;1.40;;
54561;SDS011;69047;53.358;-1.486;2024-02-23T00:28:19;7.82;;;1.60;;
54561;SDS011;69047;53.358;-1.486;2024-02-23T00:30:45;5.95;;;1.40;;
54561;SDS011;69047;53.358;-1.486;2024-02-23T00:33:10;13.73;;;2.08;;
54561;SDS011;69047;53.358;-1.486;2024-02-23T00:35:35;8.70;;;1.58;;
54561;SDS011;69047;53.358;-1.486;2024-02-23T00:38:01;6.03;;;1.10;;
54561;SDS011;69047;53.358;-1.486;2024-02-23T00:40:26;9.43;;;3.00;;
54561;SDS011;69047;53.358;-1.486;2024-02-23T00:42:52;9.50;;;1.38;;
54561;SDS011;69047;53.358;-1.486;2024-02-23T00:45:19;10.48;;;1.33;;
54561;SDS011;69047;53.358;-1.486;2024-02-23T00:47:47;8.65;;;1.48;;
54561;SDS011;69047;53.358;-1.486;2024-02-23T00:50:12;8.35;;;1.73;;
54561;SDS011;69047;53.358;-1.486;2024-02-23T00:52:38;15.65;;;3.28;;
54561;SDS011;69047;53.358;-1.486;2024-02-23T00:55:04;6.93;;;1.73;;
54561;SDS011;69047;53.358;-1.486;2024-02-23T00:57:29;6.20;;;2.05;;
54561;SDS011;69047;53.358;-1.486;2024-02-23T00:59:58;11.73;;;1.60;;
54561;SDS011;69047;53.358;-1.486;2024-02-23T01:02:23;12.18;;;1.52;;
54561;SDS011;69047;53.358;-1.486;2024-02-23T01:04:49;8.85;;;1.33;;
54561;SDS011;69047;53.358;-1.486;2024-02-23T01:07:14;12.60;;;3.60;;
54561;SDS011;69047;53.358;-1.486;2024-02-23T01:09:41;8.68;;;3.00;;
54561;SDS011;69047;53.358;-1.486;2024-02-23T01:12:07;7.10;;;1.27;;
54561;SDS011;69047;53.358;-1.486;2024-02-23T01:14:33;12.35;;;1.42;;
54561;SDS011;69047;53.358;-1.486;2024-02-23T01:16:59;5.07;;;1.17;;
54561;SDS011;69047;53.358;-1.486;2024-02-23T01:19:24;9.63;;;1.52;;
54561;SDS011;69047;53.358;-1.486;2024-02-23T01:21:50;8.95;;;1.88;;
54561;SDS011;69047;53.358;-1.486;2024-02-23T01:24:24;3.30;;;1.20;;
54561;SDS011;69047;53.358;-1.486;2024-02-23T01:26:51;8.10;;;2.22;;
54561;SDS011;69047;53.358;-1.486;2024-02-23T01:29:16;7.88;;;1.52;;
54561;SDS011;69047;53.358;-1.486;2024-02-23T01:31:42;13.00;;;1.50;;
54561;SDS011;69047;53.358;-1.486;2024-02-23T01:34:07;12.15;;;1.77;;
54561;SDS011;69047;53.358;-1.486;2024-02-23T01:36:36;9.02;;;1.63;;
54561;SDS011;69047;53.358;-1.486;2024-02-23T01:39:02;10.98;;;2.15;;
54561;SDS011;69047;53.358;-1.486;2024-02-23T01:41:28;18.45;;;3.63;;
54561;SDS011;69047;53.358;-1.486;2024-02-23T01:43:54;13.55;;;1.92;;
54561;SDS011;69047;53.358;-1.486;2024-02-23T01:46:19;10.18;;;1.52;;
54561;SDS011;69047;53.358;-1.486;2024-02-23T01:48:45;13.20;;;1.45;;
54561;SDS011;69047;53.358;-1.486;2024-02-23T01:51:11;9.48;;;2.63;;
54561;SDS011;69047;53.358;-1.486;2024-02-23T01:53:36;18.45;;;2.92;;
54561;SDS011;69047;53.358;-1.486;2024-02-23T01:56:02;4.68;;;0.95;;
54561;SDS011;69047;53.358;-1.486;2024-02-23T01:58:29;18.65;;;1.73;;
54561;SDS011;69047;53.358;-1.486;2024-02-23T02:00:55;12.65;;;1.67;;
54561;SDS011;69047;53.358;-1.486;2024-02-23T02:03:21;13.00;;;1.70;;
54561;SDS011;69047;53.358;-1.486;2024-02-23T02:05:46;11.75;;;1.95;;
54561;SDS011;69047;53.358;-1.486;2024-02-23T02:08:14;9.38;;;1.42;;
54561;SDS011;69047;53.358;-1.486;2024-02-23T02:10:40;15.95;;;1.65;;
54561;SDS011;69047;53.358;-1.486;2024-02-23T02:13:07;7.40;;;1.55;;
54561;SDS011;69047;53.358;-1.486;2024-02-23T02:15:33;4.45;;;1.38;;
54561;SDS011;69047;53.358;-1.486;2024-02-23T02:17:58;12.43;;;1.60;;
54561;SDS011;69047;53.358;-1.486;2024-02-23T02:20:24;8.05;;;1.73;;
54561;SDS011;69047;53.358;-1.486;2024-02-23T02:22:51;7.68;;;1.77;;
54561;SDS011;69047;53.358;-1.486;2024-02-23T02:25:16;16.05;;;2.03;;
54561;SDS011;69047;53.358;-1.486;2024-02-23T02:27:43;17.30;;;3.97;;
54561;SDS011;69047;53.358;-1.486;2024-02-23T02:30:11;13.55;;;1.80;;
54561;SDS011;69047;53.358;-1.486;2024-02-23T02:32:37;14.18;;;1.60;;
54561;SDS011;69047;53.358;-1.486;2024-02-23T02:35:02;19.38;;;1.98;;
54561;SDS011;69047;53.358;-1.486;2024-02-23T02:37:28;8.65;;;1.40;;
54561;SDS011;69047;53.358;-1.486;2024-02-23T02:39:54;6.25;;;1.35;;
54561;SDS011;69047;53.358;-1.486;2024-02-23T02:42:19;7.40;;;1.60;;
54561;SDS011;69047;53.358;-1.486;2024-02-23T02:44:45;10.15;;;1.58;;
54561;SDS011;69047;53.358;-1.486;2024-02-23T02:47:10;13.82;;;2.67;;
54561;SDS011;69047;53.358;-1.486;2024-02-23T02:49:35;9.18;;;1.15;;
54561;SDS011;69047;53.358;-1.486;2024-02-23T02:52:01;6.53;;;1.30;;
54561;SDS011;69047;53.358;-1.486;2024-02-23T02:54:28;6.97;;;1.13;;
54561;SDS011;69047;53.358;-1.486;2024-02-23T02:56:55;5.68;;;1.40;;
54561;SDS011;69047;53.358;-1.486;2024-02-23T02:59:21;14.07;;;1.50;;
54561;SDS011;69047;53.358;-1.486;2024-02-23T03:01:48;7.90;;;1.40;;
54561;SDS011;69047;53.358;-1.486;2024-02-23T03:04:13;6.10;;;1.20;;
54561;SDS011;69047;53.358;-1.486;2024-02-23T03:06:38;9.65;;;1.90;;
54561;SDS011;69047;53.358;-1.486;2024-02-23T03:09:04;3.25;;;0.95;;
54561;SDS011;69047;53.358;-1.486;2024-02-23T03:11:30;10.00;;;1.30;;
54561;SDS011;69047;53.358;-1.486;2024-02-23T03:13:55;6.72;;;1.02;;
54561;SDS011;69047;53.358;-1.486;2024-02-23T03:16:21;7.45;;;1.50;;
54561;SDS011;69047;53.358;-1.486;2024-02-23T03:18:48;7.18;;;1.17;;
54561;SDS011;69047;53.358;-1.486;2024-02-23T03:21:14;10.52;;;1.60;;
54561;SDS011;69047;53.358;-1.486;2024-02-23T03:23:40;5.57;;;1.10;;
54561;SDS011;69047;53.358;-1.486;2024-02-23T03:26:09;5.45;;;1.00;;
54561;SDS011;69047;53.358;-1.486;2024-02-23T03:28:34;6.38;;;1.05;;
54561;SDS011;69047;53.358;-1.486;2024-02-23T03:31:00;11.75;;;1.50;;
54561;SDS011;69047;53.358;-1.486;2024-02-23T03:33:26;6.95;;;1.30;;
54561;SDS011;69047;53.358;-1.486;2024-02-23T03:35:51;9.23;;;1.55;;
54561;SDS011;69047;53.358;-1.486;2024-02-23T03:38:17;6.43;;;1.10;;
54561;SDS011;69047;53.358;-1.486;2024-02-23T03:40:43;6.68;;;1.02;;
54561;SDS011;69047;53.358;-1.486;2024-02-23T03:43:08;9.63;;;2.28;;
54561;SDS011;69047;53.358;-1.486;2024-02-23T03:45:34;5.85;;;1.30;;
54561;SDS011;69047;53.358;-1.486;2024-02-23T03:47:59;6.65;;;1.23;;
54561;SDS011;69047;53.358;-1.486;2024-02-23T03:50:25;4.78;;;1.08;;
54561;SDS011;69047;53.358;-1.486;2024-02-23T03:52:50;8.52;;;1.27;;
54561;SDS011;69047;53.358;-1.486;2024-02-23T03:55:16;7.68;;;0.90;;
54561;SDS011;69047;53.358;-1.486;2024-02-23T03:57:41;6.90;;;1.33;;
54561;SDS011;69047;53.358;-1.486;2024-02-23T04:00:07;9.10;;;1.00;;
54561;SDS011;69047;53.358;-1.486;2024-02-23T04:02:34;7.72;;;0.90;;
54561;SDS011;69047;53.358;-1.486;2024-02-23T04:04:59;3.33;;;1.05;;
54561;SDS011;69047;53.358;-1.486;2024-02-23T04:07:25;3.80;;;0.95;;
54561;SDS011;69047;53.358;-1.486;2024-02-23T04:09:50;7.78;;;1.38;;
54561;SDS011;69047;53.358;-1.486;2024-02-23T04:12:19;2.88;;;1.17;;
54561;SDS011;69047;53.358;-1.486;2024-02-23T04:14:45;8.52;;;1.23;;
54561;SDS011;69047;53.358;-1.486;2024-02-23T04:17:11;8.63;;;1.65;;
54561;SDS011;69047;53.358;-1.486;2024-02-23T04:19:37;9.93;;;1.40;;
54561;SDS011;69047;53.358;-1.486;2024-02-23T04:22:02;5.82;;;1.55;;
54561;SDS011;69047;53.358;-1.486;2024-02-23T04:24:28;12.60;;;1.58;;
54561;SDS011;69047;53.358;-1.486;2024-02-23T04:26:53;7.72;;;0.70;;
54561;SDS011;69047;53.358;-1.486;2024-02-23T04:29:19;12.00;;;1.77;;
54561;SDS011;69047;53.358;-1.486;2024-02-23T04:31:44;5.40;;;1.40;;
54561;SDS011;69047;53.358;-1.486;2024-02-23T04:34:10;6.88;;;1.13;;
54561;SDS011;69047;53.358;-1.486;2024-02-23T04:36:36;2.80;;;1.02;;
54561;SDS011;69047;53.358;-1.486;2024-02-23T04:39:02;9.70;;;1.90;;
54561;SDS011;69047;53.358;-1.486;2024-02-23T04:41:27;3.25;;;1.40;;
54561;SDS011;69047;53.358;-1.486;2024-02-23T04:43:53;4.43;;;1.27;;
54561;SDS011;69047;53.358;-1.486;2024-02-23T04:46:24;7.25;;;1.50;;
54561;SDS011;69047;53.358;-1.486;2024-02-23T04:48:50;11.63;;;1.20;;
54561;SDS011;69047;53.358;-1.486;2024-02-23T04:51:16;3.95;;;1.02;;
54561;SDS011;69047;53.358;-1.486;2024-02-23T04:53:41;5.90;;;1.30;;
54561;SDS011;69047;53.358;-1.486;2024-02-23T04:56:07;8.20;;;1.10;;
54561;SDS011;69047;53.358;-1.486;2024-02-23T04:58:32;6.35;;;1.10;;
54561;SDS011;69047;53.358;-1.486;2024-02-23T05:00:58;9.48;;;1.58;;
54561;SDS011;69047;53.358;-1.486;2024-02-23T05:03:23;10.50;;;1.45;;
54561;SDS011;69047;53.358;-1.486;2024-02-23T05:05:49;11.75;;;1.02;;
54561;SDS011;69047;53.358;-1.486;2024-02-23T05:08:19;10.73;;;1.70;;
54561;SDS011;69047;53.358;-1.486;2024-02-23T05:10:46;10.68;;;1.27;;
54561;SDS011;69047;53.358;-1.486;2024-02-23T05:13:11;11.27;;;1.50;;
54561;SDS011;69047;53.358;-1.486;2024-02-23T05:15:37;5.30;;;1.05;;
54561;SDS011;69047;53.358;-1.486;2024-02-23T05:18:03;8.52;;;1.10;;
54561;SDS011;69047;53.358;-1.486;2024-02-23T05:20:28;7.07;;;2.33;;
54561;SDS011;69047;53.358;-1.486;2024-02-23T05:22:54;4.88;;;1.17;;
54561;SDS011;69047;53.358;-1.486;2024-02-23T05:25:19;4.15;;;0.93;;
54561;SDS011;69047;53.358;-1.486;2024-02-23T05:27:44;4.53;;;1.05;;
54561;SDS011;69047;53.358;-1.486;2024-02-23T05:30:10;3.40;;;1.13;;
54561;SDS011;69047;53.358;-1.486;2024-02-23T05:32:36;12.48;;;3.03;;
54561;SDS011;69047;53.358;-1.486;2024-02-23T05:35:01;5.38;;;1.35;;
54561;SDS011;69047;53.358;-1.486;2024-02-23T05:37:28;5.70;;;1.42;;
54561;SDS011;69047;53.358;-1.486;2024-02-23T05:39:54;8.57;;;0.90;;
54561;SDS011;69047;53.358;-1.486;2024-02-23T05:42:19;6.28;;;1.10;;
54561;SDS011;69047;53.358;-1.486;2024-02-23T05:44:44;6.10;;;1.73;;
54561;SDS011;69047;53.358;-1.486;2024-02-23T05:47:13;4.72;;;1.30;;
54561;SDS011;69047;53.358;-1.486;2024-02-23T05:49:39;5.75;;;1.52;;
54561;SDS011;69047;53.358;-1.486;2024-02-23T05:52:04;9.00;;;1.50;;
54561;SDS011;69047;53.358;-1.486;2024-02-23T05:54:31;8.18;;;1.92;;
54561;SDS011;69047;53.358;-1.486;2024-02-23T05:56:59;7.88;;;1.42;;
54561;SDS011;69047;53.358;-1.486;2024-02-23T05:59:24;12.27;;;1.25;;
54561;SDS011;69047;53.358;-1.486;2024-02-23T06:01:50;8.13;;;1.50;;
54561;SDS011;69047;53.358;-1.486;2024-02-23T06:04:17;8.63;;;1.83;;
54561;SDS011;69047;53.358;-1.486;2024-02-23T06:06:43;7.45;;;1.63;;
54561;SDS011;69047;53.358;-1.486;2024-02-23T06:09:08;8.50;;;1.85;;
54561;SDS011;69047;53.358;-1.486;2024-02-23T06:11:34;9.02;;;1.63;;
54561;SDS011;69047;53.358;-1.486;2024-02-23T06:14:00;4.93;;;1.80;;
54561;SDS011;69047;53.358;-1.486;2024-02-23T06:16:25;9.63;;;1.60;;
54561;SDS011;69047;53.358;-1.486;2024-02-23T06:18:51;3.38;;;1.92;;
54561;SDS011;69047;53.358;-1.486;2024-02-23T06:21:16;4.65;;;1.70;;
54561;SDS011;69047;53.358;-1.486;2024-02-23T06:23:43;6.40;;;1.98;;
54561;SDS011;69047;53.358;-1.486;2024-02-23T06:26:09;8.88;;;1.65;;
54561;SDS011;69047;53.358;-1.486;2024-02-23T06:28:35;6.28;;;1.52;;
54561;SDS011;69047;53.358;-1.486;2024-02-23T06:31:02;12.10;;;3.13;;
54561;SDS011;69047;53.358;-1.486;2024-02-23T06:33:29;7.78;;;2.10;;
54561;SDS011;69047;53.358;-1.486;2024-02-23T06:35:55;6.85;;;1.80;;
54561;SDS011;69047;53.358;-1.486;2024-02-23T06:38:21;5.90;;;1.92;;
54561;SDS011;69047;53.358;-1.486;2024-02-23T06:40:46;4.88;;;1.50;;
54561;SDS011;69047;53.358;-1.486;2024-02-23T06:43:12;3.58;;;1.65;;
54561;SDS011;69047;53.358;-1.486;2024-02-23T06:45:38;7.25;;;1.80;;
54561;SDS011;69047;53.358;-1.486;2024-02-23T06:48:03;6.28;;;2.20;;
54561;SDS011;69047;53.358;-1.486;2024-02-23T06:50:29;6.93;;;3.85;;
54561;SDS011;69047;53.358;-1.486;2024-02-23T06:52:55;8.30;;;2.40;;
54561;SDS011;69047;53.358;-1.486;2024-02-23T06:55:20;5.75;;;2.35;;
54561;SDS011;69047;53.358;-1.486;2024-02-23T06:57:46;11.15;;;2.80;;
54561;SDS011;69047;53.358;-1.486;2024-02-23T07:00:12;11.50;;;3.10;;
54561;SDS011;69047;53.358;-1.486;2024-02-23T07:02:38;16.25;;;3.25;;
54561;SDS011;69047;53.358;-1.486;2024-02-23T07:05:03;9.27;;;3.35;;
54561;SDS011;69047;53.358;-1.486;2024-02-23T07:07:29;8.43;;;2.95;;
54561;SDS011;69047;53.358;-1.486;2024-02-23T07:09:55;5.97;;;3.15;;
54561;SDS011;69047;53.358;-1.486;2024-02-23T07:12:21;11.20;;;3.45;;
54561;SDS011;69047;53.358;-1.486;2024-02-23T07:14:47;9.55;;;3.17;;
54561;SDS011;69047;53.358;-1.486;2024-02-23T07:17:17;10.50;;;2.72;;
54561;SDS011;69047;53.358;-1.486;2024-02-23T07:19:42;6.18;;;3.60;;
54561;SDS011;69047;53.358;-1.486;2024-02-23T07:22:08;9.75;;;3.78;;
54561;SDS011;69047;53.358;-1.486;2024-02-23T07:24:33;10.05;;;3.53;;
54561;SDS011;69047;53.358;-1.486;2024-02-23T07:26:59;9.45;;;3.58;;
54561;SDS011;69047;53.358;-1.486;2024-02-23T07:29:27;6.45;;;3.38;;
54561;SDS011;69047;53.358;-1.486;2024-02-23T07:31:53;6.65;;;2.90;;
54561;SDS011;69047;53.358;-1.486;2024-02-23T07:34:20;3.28;;;2.95;;
54561;SDS011;69047;53.358;-1.486;2024-02-23T07:36:51;7.78;;;2.70;;
54561;SDS011;69047;53.358;-1.486;2024-02-23T07:39:17;10.32;;;3.40;;
54561;SDS011;69047;53.358;-1.486;2024-02-23T07:41:42;7.68;;;3.13;;
54561;SDS011;69047;53.358;-1.486;2024-02-23T07:44:08;4.13;;;2.97;;
54561;SDS011;69047;53.358;-1.486;2024-02-23T07:46:33;6.90;;;2.90;;
54561;SDS011;69047;53.358;-1.486;2024-02-23T07:48:59;9.30;;;3.78;;
54561;SDS011;69047;53.358;-1.486;2024-02-23T07:51:24;10.05;;;3.45;;
54561;SDS011;69047;53.358;-1.486;2024-02-23T07:53:50;5.88;;;3.13;;
54561;SDS011;69047;53.358;-1.486;2024-02-23T07:56:15;10.35;;;3.28;;
54561;SDS011;69047;53.358;-1.486;2024-02-23T07:58:41;8.40;;;4.50;;
54561;SDS011;69047;53.358;-1.486;2024-02-23T08:01:07;10.23;;;3.88;;
54561;SDS011;69047;53.358;-1.486;2024-02-23T08:03:32;11.10;;;3.05;;
54561;SDS011;69047;53.358;-1.486;2024-02-23T08:05:58;7.78;;;2.83;;
54561;SDS011;69047;53.358;-1.486;2024-02-23T08:08:23;14.20;;;2.72;;
54561;SDS011;69047;53.358;-1.486;2024-02-23T08:10:50;8.73;;;2.88;;
54561;SDS011;69047;53.358;-1.486;2024-02-23T08:13:16;8.98;;;4.78;;
54561;SDS011;69047;53.358;-1.486;2024-02-23T08:15:43;6.28;;;3.22;;
54561;SDS011;69047;53.358;-1.486;2024-02-23T08:18:08;10.55;;;3.67;;
54561;SDS011;69047;53.358;-1.486;2024-02-23T08:20:34;11.30;;;3.20;;
54561;SDS011;69047;53.358;-1.486;2024-02-23T08:22:59;32.28;;;7.00;;
54561;SDS011;69047;53.358;-1.486;2024-02-23T08:25:25;8.32;;;3.70;;
54561;SDS011;69047;53.358;-1.486;2024-02-23T08:27:53;9.77;;;4.00;;
54561;SDS011;69047;53.358;-1.486;2024-02-23T08:30:18;12.02;;;4.28;;
54561;SDS011;69047;53.358;-1.486;2024-02-23T08:32:45;10.15;;;4.35;;
54561;SDS011;69047;53.358;-1.486;2024-02-23T08:35:10;17.23;;;5.40;;
54561;SDS011;69047;53.358;-1.486;2024-02-23T08:37:36;16.90;;;5.00;;
54561;SDS011;69047;53.358;-1.486;2024-02-23T08:40:01;14.40;;;5.80;;
54561;SDS011;69047;53.358;-1.486;2024-02-23T08:42:28;13.27;;;4.10;;
54561;SDS011;69047;53.358;-1.486;2024-02-23T08:44:53;11.52;;;4.35;;
54561;SDS011;69047;53.358;-1.486;2024-02-23T08:47:19;9.52;;;3.60;;
54561;SDS011;69047;53.358;-1.486;2024-02-23T08:49:44;12.27;;;4.22;;
54561;SDS011;69047;53.358;-1.486;2024-02-23T08:52:10;9.73;;;4.07;;
54561;SDS011;69047;53.358;-1.486;2024-02-23T08:54:36;18.83;;;4.22;;
54561;SDS011;69047;53.358;-1.486;2024-02-23T08:57:02;13.82;;;3.63;;
54561;SDS011;69047;53.358;-1.486;2024-02-23T08:59:29;25.33;;;5.85;;
54561;SDS011;69047;53.358;-1.486;2024-02-23T09:01:54;7.38;;;2.15;;
54561;SDS011;69047;53.358;-1.486;2024-02-23T09:04:19;8.95;;;1.80;;
54561;SDS011;69047;53.358;-1.486;2024-02-23T09:06:45;8.48;;;3.22;;
54561;SDS011;69047;53.358;-1.486;2024-02-23T09:09:10;12.88;;;2.15;;
54561;SDS011;69047;53.358;-1.486;2024-02-23T09:11:36;7.05;;;1.50;;
54561;SDS011;69047;53.358;-1.486;2024-02-23T09:14:02;7.53;;;1.35;;
54561;SDS011;69047;53.358;-1.486;2024-02-23T09:16:33;5.20;;;1.77;;
54561;SDS011;69047;53.358;-1.486;2024-02-23T09:18:59;13.13;;;1.73;;
54561;SDS011;69047;53.358;-1.486;2024-02-23T09:21:24;8.23;;;1.42;;
54561;SDS011;69047;53.358;-1.486;2024-02-23T09:23:51;9.48;;;1.95;;
54561;SDS011;69047;53.358;-1.486;2024-02-23T09:26:16;9.77;;;2.80;;
54561;SDS011;69047;53.358;-1.486;2024-02-23T09:28:43;5.22;;;2.35;;
54561;SDS011;69047;53.358;-1.486;2024-02-23T09:31:10;5.97;;;2.20;;
54561;SDS011;69047;53.358;-1.486;2024-02-23T09:33:35;12.05;;;1.88;;
54561;SDS011;69047;53.358;-1.486;2024-02-23T09:36:01;7.60;;;1.45;;
54561;SDS011;69047;53.358;-1.486;2024-02-23T09:38:27;10.27;;;1.95;;
54561;SDS011;69047;53.358;-1.486;2024-02-23T09:40:53;4.68;;;1.25;;
54561;SDS011;69047;53.358;-1.486;2024-02-23T09:43:19;3.05;;;1.40;;
54561;SDS011;69047;53.358;-1.486;2024-02-23T09:45:47;5.78;;;1.98;;
54561;SDS011;69047;53.358;-1.486;2024-02-23T09:48:16;11.60;;;1.83;;
54561;SDS011;69047;53.358;-1.486;2024-02-23T09:50:44;11.75;;;2.40;;
54561;SDS011;69047;53.358;-1.486;2024-02-23T09:53:11;15.10;;;1.75;;
54561;SDS011;69047;53.358;-1.486;2024-02-23T09:55:38;9.77;;;2.08;;
54561;SDS011;69047;53.358;-1.486;2024-02-23T09:58:04;10.00;;;3.17;;
54561;SDS011;69047;53.358;-1.486;2024-02-23T10:00:31;11.77;;;2.20;;
54561;SDS011;69047;53.358;-1.486;2024-02-23T10:03:00;7.80;;;2.30;;
54561;SDS011;69047;53.358;-1.486;2024-02-23T10:05:29;5.60;;;1.55;;
54561;SDS011;69047;53.358;-1.486;2024-02-23T10:07:55;12.40;;;2.17;;
54561;SDS011;69047;53.358;-1.486;2024-02-23T10:10:34;7.93;;;2.30;;
54561;SDS011;69047;53.358;-1.486;2024-02-23T10:13:00;5.22;;;1.67;;
54561;SDS011;69047;53.358;-1.486;2024-02-23T10:15:31;6.60;;;1.80;;
54561;SDS011;69047;53.358;-1.486;2024-02-23T10:17:58;12.05;;;1.98;;
54561;SDS011;69047;53.358;-1.486;2024-02-23T10:20:23;6.55;;;2.17;;
54561;SDS011;69047;53.358;-1.486;2024-02-23T10:22:49;7.53;;;1.80;;
54561;SDS011;69047;53.358;-1.486;2024-02-23T10:25:15;9.13;;;2.13;;
54561;SDS011;69047;53.358;-1.486;2024-02-23T10:27:42;17.98;;;3.45;;
54561;SDS011;69047;53.358;-1.486;2024-02-23T10:30:08;12.68;;;2.05;;
54561;SDS011;69047;53.358;-1.486;2024-02-23T10:32:36;7.45;;;1.67;;
54561;SDS011;69047;53.358;-1.486;2024-02-23T10:35:03;13.50;;;2.20;;
54561;SDS011;69047;53.358;-1.486;2024-02-23T10:37:34;10.05;;;2.35;;
54561;SDS011;69047;53.358;-1.486;2024-02-23T10:40:00;6.78;;;1.27;;
54561;SDS011;69047;53.358;-1.486;2024-02-23T10:42:27;7.80;;;1.60;;
54561;SDS011;69047;53.358;-1.486;2024-02-23T10:44:58;5.70;;;1.30;;
54561;SDS011;69047;53.358;-1.486;2024-02-23T10:47:26;9.40;;;1.02;;
54561;SDS011;69047;53.358;-1.486;2024-02-23T10:49:53;6.13;;;2.08;;
54561;SDS011;69047;53.358;-1.486;2024-02-23T10:52:22;5.15;;;1.05;;
54561;SDS011;69047;53.358;-1.486;2024-02-23T10:54:49;6.35;;;2.13;;
54561;SDS011;69047;53.358;-1.486;2024-02-23T10:57:17;6.65;;;1.80;;
54561;SDS011;69047;53.358;-1.486;2024-02-23T10:59:45;8.13;;;1.27;;
54561;SDS011;69047;53.358;-1.486;2024-02-23T11:02:11;8.05;;;2.40;;
54561;SDS011;69047;53.358;-1.486;2024-02-23T11:04:43;10.98;;;2.17;;
54561;SDS011;69047;53.358;-1.486;2024-02-23T11:07:15;4.43;;;1.45;;
54561;SDS011;69047;53.358;-1.486;2024-02-23T11:09:41;7.65;;;1.33;;
54561;SDS011;69047;53.358;-1.486;2024-02-23T11:12:06;9.30;;;1.83;;
54561;SDS011;69047;53.358;-1.486;2024-02-23T11:14:39;7.60;;;1.13;;
54561;SDS011;69047;53.358;-1.486;2024-02-23T11:17:06;6.80;;;1.40;;
54561;SDS011;69047;53.358;-1.486;2024-02-23T11:19:32;13.25;;;1.50;;
54561;SDS011;69047;53.358;-1.486;2024-02-23T11:22:02;11.15;;;1.63;;
54561;SDS011;69047;53.358;-1.486;2024-02-23T11:24:28;8.70;;;1.73;;
54561;SDS011;69047;53.358;-1.486;2024-02-23T11:27:01;10.10;;;1.20;;
54561;SDS011;69047;53.358;-1.486;2024-02-23T11:29:34;7.45;;;1.48;;
54561;SDS011;69047;53.358;-1.486;2024-02-23T11:32:01;35.53;;;3.42;;
54561;SDS011;69047;53.358;-1.486;2024-02-23T11:34:32;11.23;;;1.48;;
54561;SDS011;69047;53.358;-1.486;2024-02-23T11:37:07;10.98;;;1.40;;
54561;SDS011;69047;53.358;-1.486;2024-02-23T11:39:35;10.85;;;1.38;;
54561;SDS011;69047;53.358;-1.486;2024-02-23T11:42:03;7.95;;;0.75;;
54561;SDS011;69047;53.358;-1.486;2024-02-23T11:44:29;10.60;;;1.50;;
54561;SDS011;69047;53.358;-1.486;2024-02-23T11:46:55;8.20;;;1.25;;
54561;SDS011;69047;53.358;-1.486;2024-02-23T11:49:20;7.38;;;1.40;;
54561;SDS011;69047;53.358;-1.486;2024-02-23T11:51:51;7.90;;;0.88;;
54561;SDS011;69047;53.358;-1.486;2024-02-23T11:54:23;7.38;;;1.08;;
54561;SDS011;69047;53.358;-1.486;2024-02-23T11:56:54;11.25;;;5.70;;
54561;SDS011;69047;53.358;-1.486;2024-02-23T11:59:21;14.38;;;7.40;;
54561;SDS011;69047;53.358;-1.486;2024-02-23T12:01:48;17.80;;;7.60;;
54561;SDS011;69047;53.358;-1.486;2024-02-23T12:04:14;19.48;;;9.73;;
54561;SDS011;69047;53.358;-1.486;2024-02-23T12:06:41;16.23;;;8.50;;
54561;SDS011;69047;53.358;-1.486;2024-02-23T12:09:07;16.15;;;6.97;;
54561;SDS011;69047;53.358;-1.486;2024-02-23T12:11:33;14.48;;;6.80;;
54561;SDS011;69047;53.358;-1.486;2024-02-23T12:14:00;13.20;;;4.45;;
54561;SDS011;69047;53.358;-1.486;2024-02-23T12:16:27;9.55;;;3.60;;
54561;SDS011;69047;53.358;-1.486;2024-02-23T12:18:53;5.75;;;2.53;;
54561;SDS011;69047;53.358;-1.486;2024-02-23T12:21:20;15.00;;;1.63;;
54561;SDS011;69047;53.358;-1.486;2024-02-23T12:23:48;6.85;;;1.08;;
54561;SDS011;69047;53.358;-1.486;2024-02-23T12:26:15;8.93;;;0.95;;
54561;SDS011;69047;53.358;-1.486;2024-02-23T12:28:42;10.40;;;1.00;;
54561;SDS011;69047;53.358;-1.486;2024-02-23T12:31:08;8.35;;;1.20;;
54561;SDS011;69047;53.358;-1.486;2024-02-23T12:33:37;5.00;;;1.00;;
54561;SDS011;69047;53.358;-1.486;2024-02-23T12:36:04;5.43;;;1.23;;
54561;SDS011;69047;53.358;-1.486;2024-02-23T12:38:31;3.90;;;0.80;;
54561;SDS011;69047;53.358;-1.486;2024-02-23T12:40:56;5.15;;;0.68;;
54561;SDS011;69047;53.358;-1.486;2024-02-23T12:43:22;4.13;;;0.85;;
54561;SDS011;69047;53.358;-1.486;2024-02-23T12:45:52;8.38;;;1.40;;
54561;SDS011;69047;53.358;-1.486;2024-02-23T12:48:19;6.25;;;0.70;;
54561;SDS011;69047;53.358;-1.486;2024-02-23T12:50:48;8.25;;;1.77;;
54561;SDS011;69047;53.358;-1.486;2024-02-23T12:53:30;4.47;;;0.70;;
54561;SDS011;69047;53.358;-1.486;2024-02-23T12:55:59;6.03;;;0.80;;
54561;SDS011;69047;53.358;-1.486;2024-02-23T12:58:26;8.15;;;1.50;;
54561;SDS011;69047;53.358;-1.486;2024-02-23T13:00:51;4.70;;;0.80;;
54561;SDS011;69047;53.358;-1.486;2024-02-23T13:03:17;3.15;;;0.68;;
54561;SDS011;69047;53.358;-1.486;2024-02-23T13:05:42;11.93;;;0.85;;
54561;SDS011;69047;53.358;-1.486;2024-02-23T13:08:08;4.93;;;1.23;;
54561;SDS011;69047;53.358;-1.486;2024-02-23T13:10:33;3.15;;;0.90;;
54561;SDS011;69047;53.358;-1.486;2024-02-23T13:13:00;5.97;;;0.90;;
54561;SDS011;69047;53.358;-1.486;2024-02-23T13:15:29;10.05;;;1.30;;
54561;SDS011;69047;53.358;-1.486;2024-02-23T13:17:57;3.08;;;0.95;;
54561;SDS011;69047;53.358;-1.486;2024-02-23T13:20:22;7.25;;;1.27;;
54561;SDS011;69047;53.358;-1.486;2024-02-23T13:22:47;6.13;;;1.15;;
54561;SDS011;69047;53.358;-1.486;2024-02-23T13:25:13;5.00;;;1.10;;
54561;SDS011;69047;53.358;-1.486;2024-02-23T13:27:39;5.03;;;0.77;;
54561;SDS011;69047;53.358;-1.486;2024-02-23T13:30:04;8.20;;;1.05;;
54561;SDS011;69047;53.358;-1.486;2024-02-23T13:32:30;8.15;;;0.70;;
54561;SDS011;69047;53.358;-1.486;2024-02-23T13:34:56;6.00;;;1.00;;
54561;SDS011;69047;53.358;-1.486;2024-02-23T13:37:21;12.68;;;1.63;;
54561;SDS011;69047;53.358;-1.486;2024-02-23T13:39:47;9.88;;;1.77;;
54561;SDS011;69047;53.358;-1.486;2024-02-23T13:42:13;6.57;;;1.00;;
54561;SDS011;69047;53.358;-1.486;2024-02-23T13:44:39;9.18;;;1.95;;
54561;SDS011;69047;53.358;-1.486;2024-02-23T13:47:04;6.55;;;1.23;;
54561;SDS011;69047;53.358;-1.486;2024-02-23T13:49:30;4.68;;;0.90;;
54561;SDS011;69047;53.358;-1.486;2024-02-23T13:51:55;9.60;;;0.90;;
54561;SDS011;69047;53.358;-1.486;2024-02-23T13:54:25;5.97;;;1.35;;
54561;SDS011;69047;53.358;-1.486;2024-02-23T13:57:02;3.08;;;0.95;;
54561;SDS011;69047;53.358;-1.486;2024-02-23T13:59:27;8.32;;;1.08;;
54561;SDS011;69047;53.358;-1.486;2024-02-23T14:01:53;8.80;;;1.40;;
54561;SDS011;69047;53.358;-1.486;2024-02-23T14:04:18;4.68;;;1.20;;
54561;SDS011;69047;53.358;-1.486;2024-02-23T14:06:44;8.85;;;1.67;;
54561;SDS011;69047;53.358;-1.486;2024-02-23T14:09:09;6.60;;;1.58;;
54561;SDS011;69047;53.358;-1.486;2024-02-23T14:11:35;5.50;;;0.82;;
54561;SDS011;69047;53.358;-1.486;2024-02-23T14:14:00;7.30;;;1.65;;
54561;SDS011;69047;53.358;-1.486;2024-02-23T14:16:27;3.10;;;1.00;;
54561;SDS011;69047;53.358;-1.486;2024-02-23T14:18:53;3.40;;;1.00;;
54561;SDS011;69047;53.358;-1.486;2024-02-23T14:21:19;4.75;;;0.93;;
54561;SDS011;69047;53.358;-1.486;2024-02-23T14:23:46;5.35;;;1.00;;
54561;SDS011;69047;53.358;-1.486;2024-02-23T14:26:11;10.00;;;1.20;;